Ivanhoe, Minnesota
Current Conditions -  °F | °C
As of 2:14 PM on Monday 24 Nov 2014 (Local Time) from KCNB Reporting Station
Light Snow Light Snow  
Wind Chill:   Ceiling: 3100
Heat Index: 19°   Visibility: 10mi
Dew Point: 12°   Wind: 29mph
Humidity: 74%   Direction: 310°NW
Pressure: 29.75"   Gusts: 37mph
Location:  44.46°N, 96.25°W
Report Text: KCNB 242014Z AUTO 31025G32KT 10SM -SN SCT021 BKN031 OVC075 M07/M11 A2975 RMK AO2 T10701110
Loading
Personal Weather Stations






























Interactive Weather Map New forecast layout! Learn more

10-Day Weather Forecast

Advertisements
Track Severe Weather on mobile